Arimo, Idaho
Current Conditions -  °F | °C
As of 10:53 PM on Saturday 20 Dec 2014 (Local Time) from KPIH Reporting Station
Light Rain Light Rain  
Wind Chill: 29°   Ceiling: 2200
Heat Index: 37°   Visibility: 10mi
Dew Point: 35°   Wind: 13mph
Humidity: 93%   Direction: 190°S
Pressure: 29.96"   Gusts: NA
Location:  42.56°N, 112.17°W
Report Text: KPIH 210553Z AUTO 19011KT 10SM -RA OVC022 03/02 A2996 RMK AO2 RAE0455B13 SLP151 P0001 60001 T00280017 10044 20028 56005
Loading
Personal Weather Stations






























Interactive Weather Map New forecast layout! Learn more

10-Day Weather Forecast

Advertisements
Track Severe Weather on mobile